To NAV CANADA Home Page Login to a new session Search on AWWS site Feedback and Comments Disclaimer Vers la page française équivalente Tips FAQ What's new on the site To the Forecasts and Observations / NOTAM section To "File a Flight Plan" website Publications and other links Update of the User's profile FIC Telephone Numbers My Weather Data Folder Route Weather Data Regional Weather Data Local Weather Data To the Forecasts and Observations / NOTAM section
Request Generated 10/18/2017 at 03:57:04 UTC . Weather information available at that time is displayed.

METAR/TAF

If you find any discrepancies between the coded METAR/TAF and the plain language METAR/TAF please use the coded METAR/TAF. LWIS bulletins are not decoded in plain language.

CALGARY/SPRINGBANK/AB    (show WxCam)

SPECI CYBW 180339Z AUTO 25011KT 9SM CLR 01/M05 A2967 RMK WSHFT AT 0324Z RVR MISG SLP078=
SPECI
LOCATION
CYBW - CALGARY/SPRINGBANK/AB
DATE - TIME
18 OCTOBER 2017 - 0339 UTC
WIND
250 TRUE @ 11  KNOTS
VISIBILITY
9 STAT.  MILES
RUNWAY VISUAL RANGE
WEATHER
CLOUDINESS
CLEAR SKY
TEMP / DEWPOINT
1 C / -5 C
ALTIMETER
29.67 IN HG
RECENT WEATHER
WIND SHEAR

METAR CYBW 180300Z AUTO VRB02KT 9SM CLR 00/M01 A2965 RMK PRESRR RVR MISG SLP071=
METAR
LOCATION
CYBW - CALGARY/SPRINGBANK/AB
DATE - TIME
18 OCTOBER 2017 - 0300 UTC
WIND
VRB @ 2  KNOTS
VISIBILITY
9 STAT.  MILES
RUNWAY VISUAL RANGE
WEATHER
CLOUDINESS
CLEAR SKY
TEMP / DEWPOINT
0 C / -1 C
ALTIMETER
29.65 IN HG
RECENT WEATHER
WIND SHEAR

METAR CYBW 180200Z AUTO 02006KT 9SM CLR 01/M01 A2957 RMK PRESRR RVR MISG SLP045=
METAR
LOCATION
CYBW - CALGARY/SPRINGBANK/AB
DATE - TIME
18 OCTOBER 2017 - 0200 UTC
WIND
20 TRUE @ 6  KNOTS
VISIBILITY
9 STAT.  MILES
RUNWAY VISUAL RANGE
WEATHER
CLOUDINESS
CLEAR SKY
TEMP / DEWPOINT
1 C / -1 C
ALTIMETER
29.57 IN HG
RECENT WEATHER
WIND SHEAR

SPECI CYBW 180123Z AUTO 35010G15KT 9SM BKN180 03/01 A2952 RMK WSHFT AT 0113Z PRESRR RVR MISG SLP024=
SPECI
LOCATION
CYBW - CALGARY/SPRINGBANK/AB
DATE - TIME
18 OCTOBER 2017 - 0123 UTC
WIND
350 TRUE @ 10  KNOTS
GUSTS
15 KNOTS
VISIBILITY
9 STAT.  MILES
RUNWAY VISUAL RANGE
WEATHER
CLOUDINESS
BROKEN CLOUDS (5/8 - 7/8) 18000  FT
TEMP / DEWPOINT
3 C / 1 C
ALTIMETER
29.52 IN HG
RECENT WEATHER
WIND SHEAR

METAR CYBW 180100Z AUTO 04007KT 9SM SCT130 BKN190 BKN210 03/01 A2950 RMK PRESRR RVR MISG SLP016=
METAR
LOCATION
CYBW - CALGARY/SPRINGBANK/AB
DATE - TIME
18 OCTOBER 2017 - 0100 UTC
WIND
40 TRUE @ 7  KNOTS
VISIBILITY
9 STAT.  MILES
RUNWAY VISUAL RANGE
WEATHER
CLOUDINESS
SCATTERED CLOUDS (3/8 - 4/8) 13000  FT
BROKEN CLOUDS (5/8 - 7/8) 19000  FT
BROKEN CLOUDS (5/8 - 7/8) 21000  FT
TEMP / DEWPOINT
3 C / 1 C
ALTIMETER
29.50 IN HG
RECENT WEATHER
WIND SHEAR

TAF AMD CYBW 180010Z 1800/1804 30015G25KT P6SM BKN200 FM180300 29015G25KT P6SM SKC RMK FCST BASED ON AUTO OBS. NXT FCST WILL BE ISSUED AT 181145Z=
AMENDED TAF
LOCATION

CYBW - CALGARY/SPRINGBANK/AB
VALIDITY [UTC]
18 OCT - 0010 to
18 OCT - 0400
 
TIMES
[UTC]
WIND
[DEGREES TRUE]
VISIBILITY
[STAT. MILES]
WEATHER
CLOUDINESS
[FEET AGL]
 
18 OCT - 0000 to
18 OCT - 0300
300 @ 15 KNOTS
GUSTS 25 KNOTS
6+
NIL
20000 BROKEN
 
18 OCT - 0300 to
18 OCT - 0400
290 @ 15 KNOTS
GUSTS 25 KNOTS
6+
NIL
CLEAR SKY
REMARKS
THE FORECAST IS BASED ON AUTOMATIC OBSERVATIONS - THE NEXT FORECAST WILL BE ISSUED AT 1145 UTC ON DAY 18


Your time UTC time
Weather data provided by Environment Canada and NAV CANADA